createdAt,value
2023-01-25T00:03:51.648Z,102357.17
2023-01-25T00:07:54.540Z,102352.58
2023-01-25T00:12:01.664Z,102354.08
2023-01-25T00:16:05.239Z,102356.38
2023-01-25T00:20:09.542Z,102353.24
2023-01-25T00:24:14.717Z,102346.85
2023-01-25T00:28:17.625Z,102341.56
2023-01-25T00:32:20.657Z,102339.23
2023-01-25T00:36:27.524Z,102343.17
2023-01-25T00:40:30.502Z,102332.95
2023-01-25T00:44:33.264Z,102325.98
2023-01-25T00:48:36.026Z,102315.02
2023-01-25T00:52:43.907Z,102304.48
2023-01-25T00:56:46.818Z,102304.65
2023-01-25T01:00:55.213Z,102298.80
2023-01-25T01:04:58.108Z,102304.66
2023-01-25T01:09:01.041Z,102298.92
2023-01-25T01:13:03.958Z,102293.27
2023-01-25T01:17:06.757Z,102291.17
2023-01-25T01:21:10.485Z,102282.95
2023-01-25T01:25:13.949Z,102273.14
2023-01-25T01:29:42.543Z,102267.66
2023-01-25T01:33:48.705Z,102259.68
2023-01-25T01:37:55.026Z,102255.10
2023-01-25T01:41:57.975Z,102253.09
2023-01-25T01:46:03.860Z,102252.88
2023-01-25T01:50:18.741Z,102248.95
2023-01-25T01:54:57.776Z,102241.52
2023-01-25T01:59:02.720Z,102242.04
2023-01-25T02:03:05.547Z,102239.55
2023-01-25T02:07:15.206Z,102242.92
2023-01-25T02:11:21.882Z,102241.41
2023-01-25T02:15:40.780Z,102229.15
2023-01-25T02:20:35.303Z,102225.10
2023-01-25T02:24:43.107Z,102218.53
2023-01-25T02:28:58.118Z,102222.27
2023-01-25T02:33:01.106Z,102222.54
2023-01-25T02:37:04.006Z,102223.50
2023-01-25T02:41:12.843Z,102225.14
2023-01-25T02:45:19.174Z,102231.98
2023-01-25T02:49:21.966Z,102231.40
2023-01-25T02:59:10.608Z,102220.20
2023-01-25T03:04:11.476Z,102216.64
2023-01-25T03:08:14.258Z,102220.27
2023-01-25T03:12:17.067Z,102218.41
2023-01-25T03:16:20.044Z,102216.53
2023-01-25T03:20:23.218Z,102213.73
2023-01-25T03:24:26.102Z,102211.67
2023-01-25T03:28:28.923Z,102209.96
2023-01-25T03:32:54.699Z,102211.58
2023-01-25T03:36:57.491Z,102211.88
2023-01-25T03:41:00.430Z,102207.98
2023-01-25T03:45:03.597Z,102206.64
2023-01-25T03:49:06.776Z,102201.27
2023-01-25T03:53:20.047Z,102198.71
2023-01-25T03:57:22.812Z,102189.73
2023-01-25T04:01:25.698Z,102181.19
2023-01-25T04:05:28.466Z,102176.95
2023-01-25T04:09:34.658Z,102179.05
2023-01-25T04:13:38.624Z,102170.38
2023-01-25T04:17:41.524Z,102165.84
2023-01-25T04:22:10.536Z,102159.49
2023-01-25T04:26:14.529Z,102159.36
2023-01-25T04:36:09.247Z,102152.06
2023-01-25T04:46:05.796Z,102152.91
2023-01-25T04:50:09.173Z,102156.39
2023-01-25T04:54:17.056Z,102146.49
2023-01-25T04:58:20.007Z,102141.17
2023-01-25T05:02:23.008Z,102142.22
2023-01-25T05:06:25.885Z,102138.42
2023-01-25T05:10:28.639Z,102139.17
2023-01-25T05:14:32.583Z,102138.15
2023-01-25T05:18:47.523Z,102133.02
2023-01-25T05:22:51.045Z,102126.36
2023-01-25T05:27:03.391Z,102128.11
2023-01-25T05:31:06.478Z,102116.90
2023-01-25T05:35:16.394Z,102118.34
2023-01-25T05:39:19.128Z,102121.20
2023-01-25T05:43:23.781Z,102116.90
2023-01-25T05:47:26.619Z,102113.21
2023-01-25T05:51:29.663Z,102107.55
2023-01-25T05:55:34.931Z,102104.16
2023-01-25T05:59:37.756Z,102101.67
2023-01-25T06:03:40.641Z,102095.71
2023-01-25T06:07:43.631Z,102086.33
2023-01-25T06:11:46.424Z,102077.36
2023-01-25T06:15:56.379Z,102079.96
2023-01-25T06:20:03.908Z,102077.29
2023-01-25T06:24:07.022Z,102085.89
2023-01-25T06:28:09.817Z,102088.53
2023-01-25T06:32:12.671Z,102083.08
2023-01-25T06:36:18.948Z,102077.92
2023-01-25T06:40:36.265Z,102076.44
2023-01-25T06:44:39.091Z,102078.41
2023-01-25T06:48:43.074Z,102079.87
2023-01-25T06:52:52.641Z,102081.29
2023-01-25T06:56:55.779Z,102081.05
2023-01-25T07:01:04.673Z,102079.06
2023-01-25T07:05:08.256Z,102074.04
2023-01-25T07:09:13.416Z,102070.66
2023-01-25T07:13:16.260Z,102065.58
2023-01-25T07:17:19.078Z,102065.41
2023-01-25T07:21:23.719Z,102064.84
2023-01-25T07:25:52.530Z,102062.09
2023-01-25T07:29:55.413Z,102061.04
2023-01-25T07:33:58.853Z,102059.22
2023-01-25T07:38:07.867Z,102054.45
2023-01-25T07:42:10.792Z,102044.20
2023-01-25T07:46:15.556Z,102048.40
2023-01-25T07:50:18.643Z,102045.09
2023-01-25T07:54:23.848Z,102043.30
2023-01-25T07:58:55.609Z,102038.80
2023-01-25T08:02:58.353Z,102036.02
2023-01-25T08:07:01.135Z,102027.23
2023-01-25T08:11:13.313Z,102026.73
2023-01-25T08:15:16.465Z,102027.13
2023-01-25T08:19:20.409Z,102022.77
2023-01-25T08:23:23.677Z,102025.20
2023-01-25T08:32:04.990Z,102009.55
2023-01-25T08:36:10.840Z,102009.70
2023-01-25T08:40:14.835Z,102007.79
2023-01-25T08:49:00.764Z,102014.49
2023-01-25T08:53:56.661Z,102012.71
2023-01-25T09:08:16.518Z,101982.47
2023-01-25T09:12:20.483Z,101977.96
2023-01-25T09:16:29.550Z,101975.73
2023-01-25T09:20:34.615Z,101978.50
2023-01-25T09:24:38.924Z,101972.55
2023-01-25T09:28:46.661Z,101973.52
2023-01-25T09:32:51.389Z,101974.95
2023-01-25T09:37:21.016Z,101966.30
2023-01-25T09:42:06.589Z,101962.61
2023-01-25T09:46:53.841Z,101955.81
2023-01-25T09:51:40.845Z,101949.86
2023-01-25T09:55:51.235Z,101937.87
2023-01-25T09:59:56.383Z,101935.65
2023-01-25T10:04:26.870Z,101934.08
2023-01-25T10:08:59.108Z,101922.05
2023-01-25T10:13:05.961Z,101918.80
2023-01-25T10:17:24.309Z,101913.13
2023-01-25T10:22:00.730Z,101910.36
2023-01-25T10:26:16.999Z,101908.36
2023-01-25T10:31:00.342Z,101910.50
2023-01-25T10:35:35.530Z,101912.48
2023-01-25T10:39:49.973Z,101907.14
2023-01-25T10:44:13.943Z,101899.88
2023-01-25T10:48:34.579Z,101895.14
2023-01-25T10:52:39.093Z,101885.93
2023-01-25T10:56:46.021Z,101882.67
2023-01-25T11:00:52.688Z,101880.04
2023-01-25T11:04:56.887Z,101878.45
2023-01-25T11:09:01.587Z,101869.13
2023-01-25T11:13:19.687Z,101870.69
2023-01-25T11:22:01.766Z,101859.76
2023-01-25T11:26:20.122Z,101848.00
2023-01-25T11:30:24.026Z,101837.27
2023-01-25T11:34:30.192Z,101827.94
2023-01-25T11:38:33.991Z,101820.43
2023-01-25T11:43:17.561Z,101809.98
2023-01-25T11:48:03.603Z,101801.00
2023-01-25T12:03:05.485Z,101785.06
2023-01-25T12:07:36.547Z,101776.75
2023-01-25T12:11:39.225Z,101767.90
2023-01-25T12:16:10.217Z,101760.59
2023-01-25T12:20:46.942Z,101750.59
2023-01-25T12:25:00.645Z,101734.44
2023-01-25T12:29:26.797Z,101719.27
2023-01-25T12:33:36.437Z,101710.11
2023-01-25T12:38:17.710Z,101701.34
2023-01-25T12:42:29.381Z,101694.95
2023-01-25T12:46:55.919Z,101692.50
2023-01-25T12:51:00.205Z,101689.10
2023-01-25T12:55:07.135Z,101679.66
2023-01-25T12:59:51.773Z,101680.64
2023-01-25T13:11:15.135Z,101674.84
2023-01-25T13:17:10.150Z,101665.97
2023-01-25T13:26:59.575Z,101657.80
2023-01-25T13:31:03.847Z,101659.10
2023-01-25T13:35:27.042Z,101655.57
2023-01-25T13:39:32.791Z,101645.96
2023-01-25T13:43:35.600Z,101637.86
2023-01-25T13:47:40.932Z,101637.35
2023-01-25T13:51:44.118Z,101632.58
2023-01-25T13:55:53.420Z,101626.81
2023-01-25T14:00:10.245Z,101629.27
2023-01-25T14:04:23.116Z,101626.46
2023-01-25T14:08:27.595Z,101624.98
2023-01-25T14:12:41.626Z,101624.40
2023-01-25T14:16:45.649Z,101621.86
2023-01-25T14:20:52.412Z,101615.85
2023-01-25T14:25:19.508Z,101606.27
2023-01-25T14:29:32.431Z,101606.33
2023-01-25T14:33:42.688Z,101598.77
2023-01-25T14:37:45.528Z,101601.02
2023-01-25T14:42:01.057Z,101591.70
2023-01-25T14:46:24.826Z,101586.95
2023-01-25T14:51:02.343Z,101583.16
2023-01-25T14:55:09.406Z,101571.80
2023-01-25T14:59:49.465Z,101568.05
2023-01-25T15:03:52.237Z,101566.08
2023-01-25T15:07:59.240Z,101551.96
2023-01-25T15:12:16.267Z,101541.86
2023-01-25T15:16:19.066Z,101537.37
2023-01-25T15:20:33.724Z,101526.34
2023-01-25T15:24:37.969Z,101522.58
2023-01-25T15:28:42.151Z,101515.64
2023-01-25T15:32:46.038Z,101508.52
2023-01-25T15:36:49.142Z,101504.38
2023-01-25T15:41:22.642Z,101499.63
2023-01-25T15:45:25.447Z,101502.26
2023-01-25T15:49:32.924Z,101494.83
2023-01-25T15:53:35.653Z,101489.05
2023-01-25T15:58:06.735Z,101473.86
2023-01-25T16:02:13.227Z,101469.48
2023-01-25T16:07:01.756Z,101472.96
2023-01-25T16:11:04.572Z,101464.86
2023-01-25T16:15:08.416Z,101462.92
2023-01-25T16:19:23.850Z,101459.68
2023-01-25T16:23:26.639Z,101454.53
2023-01-25T16:27:36.213Z,101453.56
2023-01-25T16:31:39.190Z,101443.05
2023-01-25T16:35:42.206Z,101441.23
2023-01-25T16:39:57.340Z,101441.98
2023-01-25T16:44:00.160Z,101434.64
2023-01-25T16:48:02.960Z,101426.79
2023-01-25T16:52:07.149Z,101418.90
2023-01-25T16:56:31.740Z,101409.39
2023-01-25T17:00:34.872Z,101404.42
2023-01-25T17:04:37.659Z,101402.73
2023-01-25T17:08:40.471Z,101395.13
2023-01-25T17:12:43.356Z,101391.65
2023-01-25T17:16:48.588Z,101392.59
2023-01-25T17:21:17.771Z,101389.48
2023-01-25T17:25:20.692Z,101385.88
2023-01-25T17:29:24.903Z,101375.55
2023-01-25T17:33:28.439Z,101374.06
2023-01-25T17:37:31.357Z,101366.25
2023-01-25T17:41:35.076Z,101368.13
2023-01-25T17:45:40.914Z,101370.45
2023-01-25T17:49:43.984Z,101374.21
2023-01-25T17:53:47.107Z,101363.37
2023-01-25T17:57:51.518Z,101367.56
2023-01-25T18:01:54.873Z,101361.22
2023-01-25T18:05:58.448Z,101356.10
2023-01-25T18:15:54.950Z,101344.27
2023-01-25T18:19:57.905Z,101338.39
2023-01-25T18:24:07.933Z,101338.02
2023-01-25T18:28:28.791Z,101333.89
2023-01-25T18:32:34.139Z,101329.06
2023-01-25T18:36:36.966Z,101332.40
2023-01-25T18:41:35.002Z,101325.38
2023-01-25T18:45:39.641Z,101317.74
2023-01-25T18:50:08.286Z,101316.69
2023-01-25T18:54:11.468Z,101307.89
2023-01-25T18:59:20.075Z,101305.95
2023-01-25T19:03:22.976Z,101301.75
2023-01-25T19:07:26.575Z,101300.73
2023-01-25T19:11:29.601Z,101297.19
2023-01-25T19:15:32.416Z,101301.29
2023-01-25T19:19:35.263Z,101296.63
2023-01-25T19:23:40.941Z,101289.98
2023-01-25T19:28:38.864Z,101280.14
2023-01-25T19:32:41.622Z,101270.08
2023-01-25T19:36:50.247Z,101267.86
2023-01-25T19:40:53.106Z,101267.09
2023-01-25T19:44:55.913Z,101253.66
2023-01-25T19:49:01.898Z,101247.66
2023-01-25T19:53:14.499Z,101237.98
2023-01-25T19:57:17.596Z,101232.27
2023-01-25T20:01:24.295Z,101222.75
2023-01-25T20:05:27.687Z,101214.12
2023-01-25T20:09:30.504Z,101216.98
2023-01-25T20:13:36.884Z,101215.74
2023-01-25T20:17:40.056Z,101206.90
2023-01-25T20:21:43.882Z,101204.58
2023-01-25T20:26:15.017Z,101207.05
2023-01-25T20:36:07.870Z,101198.48
2023-01-25T20:40:12.912Z,101190.70
2023-01-25T20:44:20.198Z,101188.92
2023-01-25T20:48:24.695Z,101182.39
2023-01-25T20:52:27.920Z,101177.81
2023-01-25T20:56:31.928Z,101176.33
2023-01-25T21:00:43.277Z,101168.03
2023-01-25T21:04:46.324Z,101166.10
2023-01-25T21:08:49.186Z,101161.68
2023-01-25T21:12:54.349Z,101158.48
2023-01-25T21:16:57.395Z,101155.21
2023-01-25T21:21:06.484Z,101158.59
2023-01-25T21:25:10.088Z,101163.34
2023-01-25T21:29:13.498Z,101158.83
2023-01-25T21:33:17.316Z,101154.98
2023-01-25T21:37:29.455Z,101152.79
2023-01-25T21:41:33.938Z,101153.09
2023-01-25T21:45:58.331Z,101146.83
2023-01-25T21:50:23.502Z,101146.39
2023-01-25T21:54:29.867Z,101143.45
2023-01-25T21:59:05.285Z,101140.38
2023-01-25T22:03:16.690Z,101132.01
2023-01-25T22:07:19.468Z,101126.43
2023-01-25T22:12:17.729Z,101116.83
2023-01-25T22:16:21.590Z,101101.52
2023-01-25T22:26:44.215Z,101097.37
2023-01-25T22:30:49.163Z,101093.86
2023-01-25T22:34:52.336Z,101085.29
2023-01-25T22:38:56.254Z,101081.02
2023-01-25T22:43:02.874Z,101078.21
2023-01-25T22:47:05.948Z,101077.86
2023-01-25T22:51:17.622Z,101080.45
2023-01-25T22:55:20.408Z,101071.84
2023-01-25T22:59:23.143Z,101065.16
2023-01-25T23:03:29.039Z,101059.88
2023-01-25T23:07:32.015Z,101052.25
2023-01-25T23:11:37.799Z,101040.55
2023-01-25T23:15:43.692Z,101038.38
2023-01-25T23:19:46.912Z,101032.15
2023-01-25T23:24:03.211Z,101023.21
2023-01-25T23:28:06.159Z,101024.02
2023-01-25T23:32:11.373Z,101021.45
2023-01-25T23:36:20.624Z,101017.05
2023-01-25T23:40:25.061Z,101012.89
2023-01-25T23:44:30.290Z,101010.38
2023-01-25T23:48:33.821Z,101005.27
2023-01-25T23:52:38.886Z,101006.23
2023-01-25T23:56:42.784Z,101003.16
